createdAt,value
2018-03-18T00:00:42.937Z,-1.63
2018-03-18T00:03:12.561Z,-1.58
2018-03-18T00:05:42.540Z,-1.63
2018-03-18T00:08:12.412Z,-1.70
2018-03-18T00:10:42.228Z,-1.82
2018-03-18T00:13:12.046Z,-1.85
2018-03-18T00:15:41.898Z,-1.87
2018-03-18T00:18:11.971Z,-2.00
2018-03-18T00:20:41.980Z,-1.93
2018-03-18T00:23:11.797Z,-1.95
2018-03-18T00:25:41.356Z,-1.88
2018-03-18T00:28:11.157Z,-1.89
2018-03-18T00:30:40.978Z,-1.88
2018-03-18T00:33:10.771Z,-1.95
2018-03-18T00:35:40.564Z,-1.99
2018-03-18T00:38:10.408Z,-2.00
2018-03-18T00:40:40.210Z,-1.99
2018-03-18T00:43:10.045Z,-2.03
2018-03-18T00:45:39.859Z,-1.97
2018-03-18T00:48:09.668Z,-1.95
2018-03-18T00:50:39.490Z,-2.08
2018-03-18T00:53:09.283Z,-1.96
2018-03-18T00:55:39.091Z,-2.02
2018-03-18T00:58:08.877Z,-2.07
2018-03-18T01:00:38.693Z,-2.23
2018-03-18T01:03:08.487Z,-2.18
2018-03-18T01:05:38.286Z,-2.30
2018-03-18T01:08:08.113Z,-2.28
2018-03-18T01:10:37.662Z,-2.25
2018-03-18T01:13:07.216Z,-2.26
2018-03-18T01:15:37.041Z,-2.22
2018-03-18T01:18:06.833Z,-2.24
2018-03-18T01:20:36.689Z,-2.20
2018-03-18T01:23:06.495Z,-2.25
2018-03-18T01:25:36.365Z,-2.20
2018-03-18T01:28:06.157Z,-2.22
2018-03-18T01:30:35.958Z,-2.19
2018-03-18T01:33:05.759Z,-2.19
2018-03-18T01:35:35.622Z,-2.19
2018-03-18T01:38:05.419Z,-2.36
2018-03-18T01:40:35.227Z,-2.35
2018-03-18T01:43:04.584Z,-2.30
2018-03-18T01:45:34.554Z,-2.40
2018-03-18T01:48:04.359Z,-2.57
2018-03-18T01:50:34.175Z,-2.46
2018-03-18T01:53:15.247Z,-2.53
2018-03-18T01:55:45.239Z,-2.58
2018-03-18T01:58:15.041Z,-2.64
2018-03-18T02:00:44.491Z,-2.78
2018-03-18T02:03:13.851Z,-2.77
2018-03-18T02:05:43.676Z,-2.72
2018-03-18T02:08:13.486Z,-2.83
2018-03-18T02:10:43.290Z,-2.95
2018-03-18T02:13:13.119Z,-2.92
2018-03-18T02:15:42.943Z,-3.00
2018-03-18T02:18:12.522Z,-2.96
2018-03-18T02:20:42.333Z,-2.90
2018-03-18T02:23:12.134Z,-2.92
2018-03-18T02:25:41.953Z,-2.88
2018-03-18T02:28:11.827Z,-2.86
2018-03-18T02:30:41.634Z,-2.91
2018-03-18T02:33:11.435Z,-2.99
2018-03-18T02:35:41.249Z,-2.96
2018-03-18T02:38:11.061Z,-2.99
2018-03-18T02:40:40.862Z,-2.97
2018-03-18T02:43:10.681Z,-3.01
2018-03-18T02:45:40.476Z,-2.92
2018-03-18T02:48:10.294Z,-3.01
2018-03-18T02:50:40.091Z,-3.00
2018-03-18T02:53:09.890Z,-2.92
2018-03-18T02:55:39.709Z,-3.00
2018-03-18T02:58:09.505Z,-3.00
2018-03-18T03:00:39.347Z,-2.89
2018-03-18T03:03:09.215Z,-2.94
2018-03-18T03:05:39.171Z,-2.90
2018-03-18T03:08:08.991Z,-2.98
2018-03-18T03:10:38.810Z,-2.91
2018-03-18T03:13:08.622Z,-3.04
2018-03-18T03:15:38.434Z,-2.96
2018-03-18T03:18:08.260Z,-3.08
2018-03-18T03:20:38.085Z,-2.90
2018-03-18T03:23:07.891Z,-2.91
2018-03-18T03:25:37.689Z,-2.99
2018-03-18T03:28:07.500Z,-3.00
2018-03-18T03:30:37.350Z,-3.04
2018-03-18T03:33:06.901Z,-3.24
2018-03-18T03:35:36.701Z,-3.31
2018-03-18T03:38:06.532Z,-3.11
2018-03-18T03:40:36.324Z,-3.17
2018-03-18T03:43:06.147Z,-3.19
2018-03-18T03:45:35.954Z,-3.23
2018-03-18T03:48:05.763Z,-3.18
2018-03-18T03:50:35.585Z,-3.19
2018-03-18T03:53:05.383Z,-3.33
2018-03-18T03:55:35.199Z,-3.24
2018-03-18T03:58:05.012Z,-3.18
2018-03-18T04:00:34.812Z,-3.35
2018-03-18T04:03:04.644Z,-3.32
2018-03-18T04:05:34.453Z,-3.39
2018-03-18T04:08:04.266Z,-3.43
2018-03-18T04:10:34.079Z,-3.41
2018-03-18T04:13:03.881Z,-3.45
2018-03-18T04:15:33.705Z,-3.47
2018-03-18T04:18:03.508Z,-3.58
2018-03-18T04:20:33.318Z,-3.60
2018-03-18T04:23:03.111Z,-3.69
2018-03-18T04:25:33.052Z,-3.63
2018-03-18T04:28:02.834Z,-3.54
2018-03-18T04:30:32.634Z,-3.80
2018-03-18T04:33:02.448Z,-3.68
2018-03-18T04:35:32.244Z,-3.75
2018-03-18T04:38:02.047Z,-3.80
2018-03-18T04:40:31.892Z,-3.69
2018-03-18T04:43:01.700Z,-3.70
2018-03-18T04:45:31.515Z,-3.68
2018-03-18T04:48:01.319Z,-3.75
2018-03-18T04:50:31.120Z,-3.70
2018-03-18T04:53:00.934Z,-3.83
2018-03-18T04:55:30.750Z,-3.85
2018-03-18T04:58:00.575Z,-3.80
2018-03-18T05:00:30.374Z,-3.83
2018-03-18T05:02:59.993Z,-3.85
2018-03-18T05:05:29.605Z,-3.97
2018-03-18T05:07:59.419Z,-3.91
2018-03-18T05:10:29.231Z,-3.96
2018-03-18T05:12:59.053Z,-3.89
2018-03-18T05:15:28.880Z,-3.90
2018-03-18T05:17:58.709Z,-3.83
2018-03-18T05:20:28.508Z,-3.85
2018-03-18T05:22:58.320Z,-3.89
2018-03-18T05:25:28.123Z,-3.86
2018-03-18T05:27:57.966Z,-3.86
2018-03-18T05:30:27.752Z,-3.93
2018-03-18T05:32:57.409Z,-3.87
2018-03-18T05:35:27.201Z,-3.82
2018-03-18T05:37:56.808Z,-3.86
2018-03-18T05:40:26.652Z,-3.85
2018-03-18T05:42:56.457Z,-4.07
2018-03-18T05:45:26.247Z,-3.95
2018-03-18T05:47:56.063Z,-4.01
2018-03-18T05:50:25.873Z,-3.85
2018-03-18T05:52:55.674Z,-3.84
2018-03-18T05:55:25.485Z,-3.81
2018-03-18T05:57:55.260Z,-3.74
2018-03-18T06:00:25.087Z,-3.91
2018-03-18T06:02:54.867Z,-3.85
2018-03-18T06:05:24.668Z,-3.87
2018-03-18T06:07:54.484Z,-3.82
2018-03-18T06:10:24.292Z,-3.80
2018-03-18T06:12:54.090Z,-3.68
2018-03-18T06:15:23.870Z,-3.62
2018-03-18T06:17:53.674Z,-3.63
2018-03-18T06:20:23.457Z,-3.55
2018-03-18T06:22:53.252Z,-3.62
2018-03-18T06:25:23.057Z,-3.54
2018-03-18T06:27:53.147Z,-3.54
2018-03-18T06:30:22.945Z,-3.40
2018-03-18T06:32:52.788Z,-3.27
2018-03-18T06:35:22.588Z,-3.22
2018-03-18T06:37:53.037Z,-3.25
2018-03-18T06:40:22.809Z,-3.21
2018-03-18T06:42:52.601Z,-3.07
2018-03-18T06:45:22.401Z,-3.15
2018-03-18T06:47:52.202Z,-3.01
2018-03-18T06:50:21.997Z,-2.63
2018-03-18T06:52:51.816Z,-2.77
2018-03-18T06:55:21.637Z,-3.03
2018-03-18T06:57:51.453Z,-2.75
2018-03-18T07:00:21.254Z,-2.52
2018-03-18T07:02:51.056Z,-2.71
2018-03-18T07:05:20.840Z,-2.91
2018-03-18T07:07:50.664Z,-2.73
2018-03-18T07:10:20.484Z,-2.50
2018-03-18T07:12:50.295Z,-2.40
2018-03-18T07:15:20.112Z,-2.24
2018-03-18T07:17:49.917Z,-2.35
2018-03-18T07:20:20.362Z,-2.08
2018-03-18T07:22:49.953Z,-2.56
2018-03-18T07:25:24.275Z,-2.02
2018-03-18T07:27:54.083Z,-2.50
2018-03-18T07:30:23.881Z,-2.14
2018-03-18T07:32:53.697Z,-2.48
2018-03-18T07:35:23.506Z,-2.42
2018-03-18T07:37:53.322Z,-2.23
2018-03-18T07:40:23.147Z,-2.73
2018-03-18T07:42:52.950Z,-2.97
2018-03-18T07:45:22.601Z,-2.45
2018-03-18T07:47:52.218Z,-2.39
2018-03-18T07:50:22.094Z,-2.61
2018-03-18T07:52:51.961Z,-2.35
2018-03-18T07:55:21.746Z,-2.55
2018-03-18T07:57:51.660Z,-2.49
2018-03-18T08:00:21.563Z,-2.44
2018-03-18T08:02:51.385Z,-1.96
2018-03-18T08:05:21.253Z,-1.61
2018-03-18T08:07:51.071Z,-1.53
2018-03-18T08:10:20.885Z,-1.72
2018-03-18T08:12:50.717Z,-1.57
2018-03-18T08:15:20.644Z,-1.55
2018-03-18T08:17:50.431Z,-1.18
2018-03-18T08:20:20.317Z,-1.40
2018-03-18T08:22:50.133Z,-1.29
2018-03-18T08:25:19.946Z,-1.57
2018-03-18T08:27:49.769Z,-1.09
2018-03-18T08:30:19.555Z,-1.56
2018-03-18T08:32:49.808Z,-0.93
2018-03-18T08:35:19.689Z,-0.54
2018-03-18T08:37:49.747Z,-0.79
2018-03-18T08:40:19.582Z,-0.63
2018-03-18T08:42:49.423Z,-0.75
2018-03-18T08:45:19.222Z,-1.12
2018-03-18T08:47:49.138Z,-1.28
2018-03-18T08:50:19.080Z,-0.90
2018-03-18T08:52:49.235Z,-0.68
2018-03-18T08:55:27.286Z,-0.86
2018-03-18T08:57:57.130Z,-0.67
2018-03-18T09:00:27.124Z,-1.31
2018-03-18T09:02:56.767Z,-0.77
2018-03-18T09:05:26.579Z,-0.64
2018-03-18T09:08:01.873Z,-0.08
2018-03-18T09:10:31.754Z,0.06
2018-03-18T09:13:01.663Z,0.01
2018-03-18T09:15:31.582Z,0.82
2018-03-18T09:18:01.443Z,0.61
2018-03-18T09:20:31.612Z,0.43
2018-03-18T09:23:01.517Z,1.39
2018-03-18T09:25:32.656Z,0.89
2018-03-18T09:28:02.521Z,1.40
2018-03-18T09:30:32.418Z,0.33
2018-03-18T09:33:02.237Z,1.21
2018-03-18T09:35:32.193Z,0.73
2018-03-18T09:38:02.076Z,1.03
2018-03-18T09:40:31.874Z,0.20
2018-03-18T09:43:01.731Z,-0.01
2018-03-18T09:45:31.524Z,-0.30
2018-03-18T09:48:01.240Z,-0.11
2018-03-18T09:50:30.832Z,-0.55
2018-03-18T09:53:00.632Z,-0.59
2018-03-18T09:55:34.331Z,-0.34
2018-03-18T09:58:04.141Z,-0.25
2018-03-18T10:00:33.770Z,-0.64
2018-03-18T10:03:03.609Z,-0.27
2018-03-18T10:05:37.642Z,0.36
2018-03-18T10:08:07.531Z,0.40
2018-03-18T10:10:37.404Z,1.74
2018-03-18T10:13:07.211Z,3.71
2018-03-18T10:15:37.116Z,4.79
2018-03-18T10:18:06.974Z,4.66
2018-03-18T10:20:36.835Z,5.39
2018-03-18T10:23:06.702Z,7.04
2018-03-18T10:25:36.602Z,7.24
2018-03-18T10:28:06.825Z,6.14
2018-03-18T10:30:36.673Z,6.01
2018-03-18T10:33:07.461Z,3.94
2018-03-18T10:35:37.383Z,3.16
2018-03-18T10:38:07.751Z,2.86
2018-03-18T10:40:37.580Z,2.72
2018-03-18T10:43:07.483Z,1.71
2018-03-18T10:45:37.928Z,2.10
2018-03-18T10:48:07.916Z,2.40
2018-03-18T10:50:37.753Z,3.21
2018-03-18T10:53:07.173Z,3.52
2018-03-18T10:55:37.052Z,2.94
2018-03-18T10:58:07.318Z,2.50
2018-03-18T11:00:42.613Z,2.94
2018-03-18T11:03:13.589Z,1.93
2018-03-18T11:05:43.945Z,3.24
2018-03-18T11:08:13.774Z,2.12
2018-03-18T11:10:43.570Z,1.31
2018-03-18T11:13:13.431Z,1.59
2018-03-18T11:15:43.295Z,2.06
2018-03-18T11:18:13.268Z,2.40
2018-03-18T11:20:43.105Z,2.30
2018-03-18T11:23:12.459Z,1.45
2018-03-18T11:25:42.189Z,2.31
2018-03-18T11:28:12.011Z,2.30
2018-03-18T11:30:42.503Z,1.53
2018-03-18T11:33:12.362Z,1.10
2018-03-18T11:35:42.172Z,1.52
2018-03-18T11:38:12.057Z,1.90
2018-03-18T11:40:41.867Z,2.45
2018-03-18T11:43:11.746Z,3.02
2018-03-18T11:45:41.244Z,3.67
2018-03-18T11:48:12.219Z,2.29
2018-03-18T11:50:42.130Z,2.18
2018-03-18T11:53:12.017Z,1.13
2018-03-18T11:55:41.834Z,2.56
2018-03-18T11:58:11.740Z,3.16
2018-03-18T12:00:41.701Z,2.57
2018-03-18T12:03:11.270Z,4.01
2018-03-18T12:05:41.155Z,3.20
2018-03-18T12:08:16.079Z,2.78
2018-03-18T12:10:45.646Z,2.23
2018-03-18T12:13:15.628Z,2.40
2018-03-18T12:15:45.473Z,2.13
2018-03-18T12:18:15.278Z,1.90
2018-03-18T12:20:45.188Z,1.79
2018-03-18T12:23:15.042Z,2.56
2018-03-18T12:25:44.908Z,1.14
2018-03-18T12:28:14.796Z,0.91
2018-03-18T12:30:45.162Z,1.36
2018-03-18T12:33:14.974Z,0.19
2018-03-18T12:35:45.072Z,0.70
2018-03-18T12:38:14.650Z,0.50
2018-03-18T12:40:50.734Z,0.72
2018-03-18T12:43:27.139Z,1.20
2018-03-18T12:45:56.753Z,0.69
2018-03-18T12:48:27.106Z,-0.07
2018-03-18T12:50:56.969Z,0.56
2018-03-18T12:53:26.512Z,0.15
2018-03-18T12:56:00.334Z,-0.17
2018-03-18T12:58:30.573Z,-0.08
2018-03-18T13:01:00.484Z,0.08
2018-03-18T13:03:30.316Z,-0.53
2018-03-18T13:05:59.931Z,0.17
2018-03-18T13:08:29.893Z,-0.29
2018-03-18T13:10:59.719Z,0.19
2018-03-18T13:13:29.506Z,-0.13
2018-03-18T13:15:59.308Z,0.37
2018-03-18T13:18:29.095Z,0.72
2018-03-18T13:20:58.885Z,0.41
2018-03-18T13:23:28.682Z,0.74
2018-03-18T13:25:58.520Z,0.32
2018-03-18T13:28:28.340Z,0.47
2018-03-18T13:30:58.178Z,0.34
2018-03-18T13:33:28.012Z,0.43
2018-03-18T13:35:59.384Z,0.49
2018-03-18T13:38:29.202Z,0.64
2018-03-18T13:40:58.988Z,0.47
2018-03-18T13:43:28.810Z,0.43
2018-03-18T13:45:58.584Z,1.03
2018-03-18T13:48:28.408Z,1.13
2018-03-18T13:50:58.204Z,0.80
2018-03-18T13:53:27.992Z,1.03
2018-03-18T13:55:57.818Z,1.80
2018-03-18T13:58:27.664Z,2.20
2018-03-18T14:00:57.445Z,1.61
2018-03-18T14:03:27.268Z,1.24
2018-03-18T14:05:57.563Z,1.48
2018-03-18T14:08:27.379Z,1.01
2018-03-18T14:10:57.185Z,0.98
2018-03-18T14:13:26.976Z,1.51
2018-03-18T14:15:56.843Z,1.42
2018-03-18T14:18:26.678Z,1.38
2018-03-18T14:20:56.497Z,1.07
2018-03-18T14:23:26.301Z,1.56
2018-03-18T14:25:56.210Z,1.25
2018-03-18T14:28:26.192Z,1.63
2018-03-18T14:30:56.037Z,1.23
2018-03-18T14:33:25.852Z,1.43
2018-03-18T14:35:55.712Z,0.88
2018-03-18T14:38:25.598Z,0.82
2018-03-18T14:40:55.768Z,1.23
2018-03-18T14:43:25.593Z,1.30
2018-03-18T14:45:55.373Z,0.83
2018-03-18T14:48:25.264Z,0.88
2018-03-18T14:50:55.111Z,1.01
2018-03-18T14:53:24.916Z,0.62
2018-03-18T14:55:54.713Z,0.78
2018-03-18T14:58:24.534Z,0.49
2018-03-18T15:00:54.442Z,0.40
2018-03-18T15:03:24.294Z,0.59
2018-03-18T15:05:53.642Z,0.34
2018-03-18T15:08:23.520Z,0.53
2018-03-18T15:10:53.350Z,0.08
2018-03-18T15:13:23.225Z,0.16
2018-03-18T15:15:53.057Z,0.23
2018-03-18T15:18:22.880Z,-0.04
2018-03-18T15:20:52.943Z,0.18
2018-03-18T15:23:22.800Z,0.35
2018-03-18T15:25:52.625Z,0.09
2018-03-18T15:28:22.456Z,0.39
2018-03-18T15:30:52.297Z,0.02
2018-03-18T15:33:22.478Z,0.07
2018-03-18T15:35:52.129Z,0.15
2018-03-18T15:38:21.995Z,-0.08
2018-03-18T15:40:51.892Z,0.12
2018-03-18T15:43:21.678Z,0.07
2018-03-18T15:45:51.500Z,0.10
2018-03-18T15:48:21.300Z,0.07
2018-03-18T15:50:51.480Z,0.15
2018-03-18T15:53:21.502Z,0.03
2018-03-18T15:55:51.468Z,0.10
2018-03-18T15:58:21.265Z,0.03
2018-03-18T16:00:51.517Z,0.04
2018-03-18T16:03:21.328Z,-0.66
2018-03-18T16:05:51.245Z,-0.43
2018-03-18T16:08:21.102Z,-0.50
2018-03-18T16:10:50.897Z,-0.50
2018-03-18T16:13:21.121Z,-0.49
2018-03-18T16:15:50.929Z,-0.52
2018-03-18T16:18:20.567Z,-0.47
2018-03-18T16:20:50.439Z,-0.57
2018-03-18T16:23:20.322Z,-0.59
2018-03-18T16:25:50.104Z,-0.71
2018-03-18T16:28:19.905Z,-0.87
2018-03-18T16:31:15.858Z,-0.85
2018-03-18T16:33:45.598Z,-0.79
2018-03-18T16:36:16.252Z,-0.75
2018-03-18T16:38:46.049Z,-0.67
2018-03-18T16:41:20.927Z,-0.68
2018-03-18T16:43:51.445Z,-0.88
2018-03-18T16:46:21.583Z,-0.84
2018-03-18T16:48:51.426Z,-0.89
2018-03-18T16:51:21.522Z,-1.05
2018-03-18T16:53:51.631Z,-0.98
2018-03-18T16:56:21.500Z,-0.94
2018-03-18T16:58:51.293Z,-0.98
2018-03-18T17:01:21.173Z,-1.08
2018-03-18T17:03:51.315Z,-1.11
2018-03-18T17:06:21.184Z,-1.11
2018-03-18T17:08:51.024Z,-1.01
2018-03-18T17:11:20.873Z,-1.03
2018-03-18T17:13:50.856Z,-0.99
2018-03-18T17:16:20.696Z,-1.09
2018-03-18T17:18:50.335Z,-1.09
2018-03-18T17:21:21.421Z,-1.14
2018-03-18T17:23:51.324Z,-1.05
2018-03-18T17:26:21.469Z,-1.16
2018-03-18T17:28:51.305Z,-1.12
2018-03-18T17:31:21.201Z,-1.11
2018-03-18T17:33:52.593Z,-1.19
2018-03-18T17:36:22.938Z,-1.17
2018-03-18T17:38:52.833Z,-1.24
2018-03-18T17:41:22.734Z,-1.13
2018-03-18T17:43:52.806Z,-1.22
2018-03-18T17:46:33.472Z,-1.19
2018-03-18T17:49:14.200Z,-1.25
2018-03-18T17:55:01.868Z,-1.19
2018-03-18T17:57:31.391Z,-1.18
2018-03-18T18:00:01.200Z,-1.09
2018-03-18T18:02:31.321Z,-1.11
2018-03-18T18:05:01.627Z,-1.04
2018-03-18T18:07:31.806Z,-1.10
2018-03-18T18:10:02.003Z,-1.14
2018-03-18T18:12:32.412Z,-1.12
2018-03-18T18:15:03.377Z,-1.07
2018-03-18T18:17:33.540Z,-1.32
2018-03-18T18:20:03.767Z,-1.31
2018-03-18T18:22:33.925Z,-1.33
2018-03-18T18:25:04.360Z,-1.30
2018-03-18T18:27:34.693Z,-1.32
2018-03-18T18:32:59.413Z,-1.39
2018-03-18T18:38:07.089Z,-1.45
2018-03-18T18:40:37.074Z,-1.36
2018-03-18T18:43:07.075Z,-1.44
2018-03-18T18:45:36.914Z,-1.42
2018-03-18T18:48:06.881Z,-1.36
2018-03-18T18:50:36.835Z,-1.54
2018-03-18T18:53:07.659Z,-1.49
2018-03-18T18:55:38.584Z,-1.48
2018-03-18T18:58:09.684Z,-1.53
2018-03-18T19:00:41.122Z,-1.46
2018-03-18T19:03:11.037Z,-1.53
2018-03-18T19:05:41.052Z,-1.54
2018-03-18T19:08:10.974Z,-1.51
2018-03-18T19:10:40.936Z,-1.64
2018-03-18T19:13:10.890Z,-1.56
2018-03-18T19:15:40.940Z,-1.63
2018-03-18T19:18:10.911Z,-1.60
2018-03-18T19:20:40.873Z,-1.57
2018-03-18T19:23:10.860Z,-1.61
2018-03-18T19:25:41.002Z,-1.58
2018-03-18T19:28:11.121Z,-1.61
2018-03-18T19:30:40.986Z,-1.72
2018-03-18T19:33:11.239Z,-1.65
2018-03-18T19:35:41.255Z,-1.69
2018-03-18T19:38:11.076Z,-1.67
2018-03-18T19:40:41.113Z,-1.65
2018-03-18T19:43:11.368Z,-1.74
2018-03-18T19:45:41.348Z,-1.72
2018-03-18T19:48:12.186Z,-1.69
2018-03-18T19:50:42.139Z,-1.70
2018-03-18T19:53:12.001Z,-1.73
2018-03-18T19:55:41.869Z,-1.86
2018-03-18T19:58:14.304Z,-1.79
2018-03-18T20:00:44.192Z,-1.77
2018-03-18T20:03:15.232Z,-1.83
2018-03-18T20:05:45.175Z,-1.88
2018-03-18T20:08:15.095Z,-1.93
2018-03-18T20:10:44.994Z,-1.93
2018-03-18T20:13:14.801Z,-1.99
2018-03-18T20:15:44.631Z,-1.99
2018-03-18T20:18:15.275Z,-1.97
2018-03-18T20:20:49.723Z,-2.06
2018-03-18T20:23:19.516Z,-2.08
2018-03-18T20:25:49.356Z,-2.06
2018-03-18T20:28:19.164Z,-2.05
2018-03-18T20:30:48.978Z,-2.07
2018-03-18T20:33:18.801Z,-2.10
2018-03-18T20:35:48.864Z,-2.20
2018-03-18T20:38:18.673Z,-2.25
2018-03-18T20:40:48.517Z,-2.18
2018-03-18T20:43:18.797Z,-2.27
2018-03-18T20:45:48.682Z,-2.31
2018-03-18T20:48:18.336Z,-2.29
2018-03-18T20:50:48.131Z,-2.19
2018-03-18T20:53:17.952Z,-2.46
2018-03-18T20:55:48.646Z,-2.30
2018-03-18T20:58:18.436Z,-2.38
2018-03-18T21:00:48.299Z,-2.29
2018-03-18T21:03:18.133Z,-2.46
2018-03-18T21:05:47.944Z,-2.44
2018-03-18T21:08:17.821Z,-2.53
2018-03-18T21:10:47.758Z,-2.62
2018-03-18T21:13:17.586Z,-2.48
2018-03-18T21:15:48.697Z,-2.46
2018-03-18T21:18:18.009Z,-2.47
2018-03-18T21:20:47.847Z,-2.50
2018-03-18T21:23:17.723Z,-2.55
2018-03-18T21:25:47.533Z,-2.58
2018-03-18T21:28:17.345Z,-2.53
2018-03-18T21:30:48.141Z,-2.52
2018-03-18T21:33:17.976Z,-2.52
2018-03-18T21:35:47.499Z,-2.68
2018-03-18T21:38:17.331Z,-2.57
2018-03-18T21:40:47.115Z,-2.62
2018-03-18T21:43:16.943Z,-2.62
2018-03-18T21:45:46.784Z,-2.80
2018-03-18T21:48:17.478Z,-2.63
2018-03-18T21:50:47.307Z,-2.61
2018-03-18T21:53:16.876Z,-2.55
2018-03-18T21:55:46.689Z,-2.59
2018-03-18T21:58:16.716Z,-2.63
2018-03-18T22:00:46.587Z,-2.60
2018-03-18T22:03:20.326Z,-2.67
2018-03-18T22:05:58.934Z,-2.72
2018-03-18T22:08:47.689Z,-2.79
2018-03-18T22:11:17.539Z,-2.82
2018-03-18T22:13:47.205Z,-2.82
2018-03-18T22:16:17.913Z,-2.73
2018-03-18T22:18:48.580Z,-2.79
2018-03-18T22:21:18.453Z,-2.83
2018-03-18T22:23:48.736Z,-2.90
2018-03-18T22:26:19.418Z,-2.84
2018-03-18T22:28:49.366Z,-2.90
2018-03-18T22:31:19.173Z,-2.80
2018-03-18T22:33:49.025Z,-2.86
2018-03-18T22:36:19.116Z,-2.82
2018-03-18T22:38:49.036Z,-2.75
2018-03-18T22:41:18.867Z,-2.80
2018-03-18T22:43:48.713Z,-2.84
2018-03-18T22:46:18.505Z,-2.81
2018-03-18T22:48:49.110Z,-2.86
2018-03-18T22:51:18.951Z,-3.01
2018-03-18T22:53:49.419Z,-2.98
2018-03-18T22:56:19.305Z,-2.95
2018-03-18T22:58:49.174Z,-3.11
2018-03-18T23:01:19.040Z,-3.05
2018-03-18T23:03:49.083Z,-3.00
2018-03-18T23:06:18.926Z,-3.04
2018-03-18T23:08:48.726Z,-3.16
2018-03-18T23:11:18.558Z,-3.19
2018-03-18T23:13:48.361Z,-3.18
2018-03-18T23:16:18.172Z,-3.18
2018-03-18T23:18:48.034Z,-3.21
2018-03-18T23:21:17.833Z,-3.06
2018-03-18T23:23:47.635Z,-3.08
2018-03-18T23:26:17.462Z,-3.22
2018-03-18T23:28:47.259Z,-3.19
2018-03-18T23:31:17.087Z,-3.08
2018-03-18T23:33:46.898Z,-3.19
2018-03-18T23:36:16.714Z,-3.21
2018-03-18T23:38:46.523Z,-3.07
2018-03-18T23:41:16.179Z,-3.08
2018-03-18T23:43:45.983Z,-3.11
2018-03-18T23:46:15.843Z,-3.22
2018-03-18T23:48:45.726Z,-3.14
2018-03-18T23:51:15.539Z,-3.22
2018-03-18T23:53:45.336Z,-3.27
2018-03-18T23:56:15.149Z,-3.28
2018-03-18T23:58:44.949Z,-3.28
